Time;durP1;ratioP1;P1;durP2;ratioP2;P2;SDS_P1;SDS_P2;PMS_P1;PMS_P2;Temp;Humidity;BMP_temperature;BMP_pressure;BME280_temperature;BME280_humidity;BME280_pressure;Samples;Min_cycle;Max_cycle;Signal;HPM_P1;HPM_P2
2023/06/30 00:00:27;;;;;;;6.93;2.13;;;19.50;99.90;;;;;;5001969;28;20046;-90
2023/06/30 00:02:52;;;;;;;10.38;2.63;;;19.50;99.90;;;;;;5002138;28;20068;-91
2023/06/30 00:05:18;;;;;;;8.30;2.55;;;19.50;99.90;;;;;;5002372;28;20021;-91
2023/06/30 00:07:44;;;;;;;6.85;2.30;;;19.50;99.90;;;;;;5002531;28;20034;-90
2023/06/30 00:10:10;;;;;;;9.85;2.83;;;19.50;99.90;;;;;;5002818;28;20384;-91
2023/06/30 00:12:36;;;;;;;9.90;2.53;;;19.50;99.90;;;;;;5002376;28;20492;-96
2023/06/30 00:15:02;;;;;;;10.27;3.33;;;19.40;99.90;;;;;;5002368;28;20044;-95
2023/06/30 00:17:52;;;;;;;8.57;2.65;;;19.40;99.90;;;;;;5003150;28;20029;-96
2023/06/30 00:20:21;;;;;;;7.93;2.50;;;19.40;99.90;;;;;;5006514;28;20381;-96
2023/06/30 00:22:46;;;;;;;9.75;2.75;;;19.40;99.90;;;;;;5002071;28;20025;-96
2023/06/30 00:25:12;;;;;;;10.18;2.60;;;19.40;99.90;;;;;;5019086;28;20487;-96
2023/06/30 00:27:38;;;;;;;8.50;2.45;;;19.40;99.90;;;;;;5002545;28;20553;-96
2023/06/30 00:30:04;;;;;;;10.80;2.72;;;19.30;99.90;;;;;;5002389;28;20025;-96
2023/06/30 00:33:02;;;;;;;10.00;3.28;;;19.30;99.90;;;;;;5002736;28;20060;-96
2023/06/30 00:35:31;;;;;;;9.60;3.03;;;19.30;99.90;;;;;;5018774;28;20480;-96
2023/06/30 00:37:56;;;;;;;9.32;2.65;;;19.30;99.90;;;;;;5018879;28;20495;-96
2023/06/30 00:40:22;;;;;;;8.77;2.30;;;19.20;99.90;;;;;;5001891;28;20022;-96
2023/06/30 00:42:48;;;;;;;10.27;2.58;;;19.20;99.90;;;;;;5001799;28;20494;-96
2023/06/30 00:45:13;;;;;;;8.02;2.15;;;19.20;99.90;;;;;;5002900;28;20090;-96
2023/06/30 00:47:39;;;;;;;11.25;3.08;;;19.10;99.90;;;;;;5001527;28;20103;-95
2023/06/30 00:50:05;;;;;;;11.25;2.67;;;19.10;99.90;;;;;;5001646;28;20032;-96
2023/06/30 00:52:32;;;;;;;7.35;2.53;;;19.10;99.90;;;;;;5001565;28;20056;-95
2023/06/30 00:54:57;;;;;;;8.48;2.88;;;19.00;99.90;;;;;;5001627;28;20120;-96
2023/06/30 00:57:23;;;;;;;7.63;2.30;;;19.00;99.90;;;;;;5001440;28;20052;-94
2023/06/30 00:59:49;;;;;;;11.20;2.65;;;18.90;99.90;;;;;;5001356;28;20120;-95
2023/06/30 01:02:27;;;;;;;8.20;3.15;;;18.90;99.90;;;;;;5001266;28;20064;-92
2023/06/30 01:05:00;;;;;;;8.98;2.60;;;18.80;99.90;;;;;;5017421;28;20018;-92
2023/06/30 01:08:04;;;;;;;12.07;3.13;;;18.80;99.90;;;;;;5017673;28;20024;-92
2023/06/30 01:10:32;;;;;;;11.23;2.90;;;18.80;99.90;;;;;;4985530;28;20476;-91
2023/06/30 01:13:00;;;;;;;9.85;3.42;;;18.70;99.90;;;;;;5034922;28;20041;-96
2023/06/30 01:15:27;;;;;;;16.83;3.72;;;18.70;99.90;;;;;;5001734;28;20063;-96
2023/06/30 01:17:56;;;;;;;9.40;3.35;;;18.70;99.90;;;;;;5017492;28;20028;-92
2023/06/30 01:20:23;;;;;;;8.30;2.95;;;18.60;99.90;;;;;;5001140;28;20422;-91
2023/06/30 01:22:57;;;;;;;9.05;3.33;;;18.60;99.90;;;;;;5000644;28;20075;-92
2023/06/30 01:25:27;;;;;;;9.73;4.25;;;18.60;99.90;;;;;;5017274;28;20032;-91
2023/06/30 01:27:54;;;;;;;9.88;3.25;;;18.50;99.90;;;;;;5034818;28;20104;-91
2023/06/30 01:30:21;;;;;;;11.32;3.33;;;18.50;99.90;;;;;;5001251;28;20460;-91
2023/06/30 01:32:50;;;;;;;10.52;3.22;;;18.40;99.90;;;;;;5000762;28;20026;-92
2023/06/30 01:35:16;;;;;;;11.48;3.97;;;18.40;99.90;;;;;;5001142;28;20033;-95
2023/06/30 01:37:42;;;;;;;8.48;3.35;;;18.40;99.90;;;;;;5001102;28;20482;-96
2023/06/30 01:40:08;;;;;;;8.45;3.00;;;18.30;99.90;;;;;;5017310;28;20031;-96
2023/06/30 01:42:36;;;;;;;11.20;3.30;;;18.30;99.90;;;;;;5000836;28;20033;-95
2023/06/30 01:45:02;;;;;;;14.20;4.63;;;18.30;99.90;;;;;;5017113;28;20028;-96
2023/06/30 01:47:29;;;;;;;8.90;3.50;;;18.30;99.90;;;;;;5017072;28;20526;-95
2023/06/30 01:49:56;;;;;;;10.57;3.58;;;18.20;99.90;;;;;;5017029;28;20093;-95
2023/06/30 01:52:21;;;;;;;12.00;3.30;;;18.20;99.90;;;;;;5000778;28;20025;-95
2023/06/30 01:54:47;;;;;;;9.95;3.03;;;18.10;99.90;;;;;;5000555;28;20041;-95
2023/06/30 01:57:13;;;;;;;12.32;3.45;;;18.10;99.90;;;;;;5000506;28;20060;-96
2023/06/30 01:59:38;;;;;;;10.05;3.42;;;18.10;99.90;;;;;;5000649;28;20437;-94
2023/06/30 02:02:04;;;;;;;7.90;3.28;;;18.10;99.90;;;;;;5000833;28;20025;-95
2023/06/30 02:04:30;;;;;;;8.98;3.33;;;18.00;99.90;;;;;;5000828;28;20457;-95
2023/06/30 02:06:58;;;;;;;8.93;3.25;;;18.00;99.90;;;;;;5000875;28;20022;-95
2023/06/30 02:09:24;;;;;;;10.52;3.90;;;18.00;99.90;;;;;;5000961;28;20025;-95
2023/06/30 02:11:50;;;;;;;11.52;3.25;;;17.90;99.90;;;;;;5000677;28;20041;-93
2023/06/30 02:14:16;;;;;;;14.25;3.88;;;17.90;99.90;;;;;;5000319;28;20060;-95
2023/06/30 02:16:41;;;;;;;9.32;3.25;;;17.90;99.90;;;;;;5000859;28;20037;-96
2023/06/30 02:19:07;;;;;;;12.75;3.92;;;17.80;99.90;;;;;;5000940;28;20032;-96
2023/06/30 02:21:33;;;;;;;10.57;3.38;;;17.80;99.90;;;;;;5000498;28;20037;-96
2023/06/30 02:23:58;;;;;;;10.75;3.90;;;17.80;99.90;;;;;;5001864;28;20022;-96
2023/06/30 02:26:24;;;;;;;9.32;3.55;;;17.70;99.90;;;;;;5000318;28;20021;-91
2023/06/30 02:28:50;;;;;;;9.27;3.22;;;17.70;99.90;;;;;;4999996;28;20037;-91
2023/06/30 02:31:15;;;;;;;9.98;3.78;;;17.70;99.90;;;;;;5000187;28;20030;-91
2023/06/30 02:33:41;;;;;;;12.02;3.97;;;17.60;99.90;;;;;;5000163;28;20037;-91
2023/06/30 02:36:07;;;;;;;14.23;3.97;;;17.60;99.90;;;;;;5000243;28;20068;-91
2023/06/30 02:38:32;;;;;;;11.32;3.95;;;17.60;99.90;;;;;;4999910;28;20033;-92
2023/06/30 02:40:58;;;;;;;8.13;3.53;;;17.60;99.90;;;;;;5033721;28;20026;-92
2023/06/30 02:43:24;;;;;;;14.30;3.65;;;17.50;99.90;;;;;;5000424;28;20487;-91
2023/06/30 02:45:49;;;;;;;12.88;3.47;;;17.50;99.90;;;;;;5002714;28;20519;-92
2023/06/30 02:48:15;;;;;;;8.38;3.10;;;17.50;99.90;;;;;;5003925;28;20029;-92
2023/06/30 02:50:40;;;;;;;10.90;3.65;;;17.40;99.90;;;;;;5003487;28;20120;-91
2023/06/30 02:53:06;;;;;;;9.68;3.20;;;17.40;99.90;;;;;;5019896;28;20017;-91
2023/06/30 02:55:36;;;;;;;9.48;2.95;;;17.40;99.90;;;;;;5003459;28;20464;-91
2023/06/30 02:58:02;;;;;;;11.30;3.42;;;17.30;99.90;;;;;;5003887;28;20040;-96
2023/06/30 03:00:28;;;;;;;12.57;3.47;;;17.30;99.90;;;;;;5003903;28;20096;-96
2023/06/30 03:02:53;;;;;;;7.78;3.20;;;17.30;99.90;;;;;;5004139;28;20024;-95
2023/06/30 03:05:19;;;;;;;7.22;3.10;;;17.20;99.90;;;;;;5004004;28;20030;-95
2023/06/30 03:07:45;;;;;;;11.68;3.25;;;17.20;99.90;;;;;;5003796;28;20026;-96
2023/06/30 03:10:11;;;;;;;10.93;3.55;;;17.20;99.90;;;;;;5004519;28;20033;-95
2023/06/30 03:12:37;;;;;;;14.25;3.15;;;17.10;99.90;;;;;;5004394;28;20049;-95
2023/06/30 03:15:04;;;;;;;9.57;3.95;;;17.10;99.90;;;;;;5004093;28;20139;-95
2023/06/30 03:17:29;;;;;;;9.70;3.63;;;17.10;99.90;;;;;;5004587;28;20033;-96
2023/06/30 03:19:55;;;;;;;10.20;3.83;;;17.10;99.90;;;;;;5004081;28;20036;-95
2023/06/30 03:22:21;;;;;;;8.73;3.38;;;17.00;99.90;;;;;;5003605;28;20064;-94
2023/06/30 03:24:46;;;;;;;8.60;3.03;;;17.00;99.90;;;;;;5003284;28;20021;-96
2023/06/30 03:27:12;;;;;;;5.35;2.97;;;16.90;99.90;;;;;;5003169;28;20026;-96
2023/06/30 03:29:38;;;;;;;11.70;3.55;;;16.90;99.90;;;;;;5002997;28;20025;-95
2023/06/30 03:32:04;;;;;;;6.72;2.50;;;16.90;99.90;;;;;;5003140;28;20391;-90
2023/06/30 03:34:29;;;;;;;10.75;3.75;;;16.90;99.90;;;;;;5003828;28;20026;-90
2023/06/30 03:36:55;;;;;;;10.82;3.05;;;16.80;99.90;;;;;;5002780;28;20472;-90
2023/06/30 03:39:21;;;;;;;9.90;3.15;;;16.80;99.90;;;;;;5002973;28;20025;-89
2023/06/30 03:41:47;;;;;;;9.77;3.22;;;16.80;99.90;;;;;;5002960;28;20029;-90
2023/06/30 03:44:13;;;;;;;10.88;3.50;;;16.80;99.90;;;;;;5002684;28;20026;-90
2023/06/30 03:46:39;;;;;;;10.48;3.00;;;16.70;99.90;;;;;;5018923;28;20056;-90
2023/06/30 03:49:05;;;;;;;11.13;3.70;;;16.70;99.90;;;;;;5002961;28;20034;-95
2023/06/30 03:51:31;;;;;;;6.72;2.55;;;16.70;99.90;;;;;;5020073;28;20090;-95
2023/06/30 03:53:56;;;;;;;8.32;3.53;;;16.70;99.90;;;;;;5002726;28;20464;-95
2023/06/30 03:56:22;;;;;;;11.25;3.33;;;16.60;99.90;;;;;;5001798;28;20022;-95
2023/06/30 03:58:48;;;;;;;10.70;3.30;;;16.60;99.90;;;;;;5002490;28;20065;-94
2023/06/30 04:01:14;;;;;;;10.85;3.53;;;16.60;99.90;;;;;;5002445;28;20044;-94
2023/06/30 04:03:40;;;;;;;8.82;3.30;;;16.60;99.90;;;;;;5002268;28;20017;-94
2023/06/30 04:06:05;;;;;;;9.18;3.08;;;16.60;99.90;;;;;;5002259;28;20026;-91
2023/06/30 04:08:31;;;;;;;10.10;3.53;;;16.60;99.90;;;;;;5002261;28;20068;-91
2023/06/30 04:10:57;;;;;;;7.90;3.20;;;16.50;99.90;;;;;;5002256;28;20148;-90
2023/06/30 04:13:23;;;;;;;9.27;2.90;;;16.50;99.90;;;;;;5001831;28;20274;-91
2023/06/30 04:15:48;;;;;;;10.50;3.22;;;16.50;99.90;;;;;;5002068;28;20021;-90
2023/06/30 04:18:14;;;;;;;8.93;2.92;;;16.50;99.90;;;;;;5002007;28;20033;-91
2023/06/30 04:20:40;;;;;;;9.02;3.42;;;16.50;99.90;;;;;;5001932;28;20041;-91
2023/06/30 04:23:05;;;;;;;11.65;3.75;;;16.40;99.90;;;;;;5002408;28;20140;-91
2023/06/30 04:25:31;;;;;;;8.93;3.40;;;16.40;99.90;;;;;;5002182;28;20026;-91
2023/06/30 04:27:57;;;;;;;9.93;3.53;;;16.40;99.90;;;;;;5002129;28;20104;-91
2023/06/30 04:30:22;;;;;;;12.93;3.40;;;16.40;99.90;;;;;;5018278;28;20049;-90
2023/06/30 04:32:48;;;;;;;11.55;3.50;;;16.40;99.90;;;;;;5001587;28;20083;-90
2023/06/30 04:35:14;;;;;;;10.93;3.35;;;16.30;99.90;;;;;;5002181;28;20358;-90
2023/06/30 04:37:40;;;;;;;14.80;3.88;;;16.40;99.90;;;;;;5017640;28;20116;-90
2023/06/30 04:40:10;;;;;;;9.77;3.78;;;16.30;99.90;;;;;;5003091;28;20120;-95
2023/06/30 04:42:37;;;;;;;10.38;4.05;;;16.30;99.90;;;;;;5018078;28;20412;-96
2023/06/30 04:45:03;;;;;;;9.75;3.70;;;16.30;99.90;;;;;;5018356;28;20112;-95
2023/06/30 04:47:28;;;;;;;12.60;3.72;;;16.30;99.90;;;;;;5019845;28;20075;-96
2023/06/30 04:49:55;;;;;;;11.82;3.58;;;16.30;99.90;;;;;;5001607;28;20025;-96
2023/06/30 04:52:20;;;;;;;8.75;3.13;;;16.30;99.90;;;;;;5018008;28;20438;-93
2023/06/30 04:54:46;;;;;;;11.00;4.00;;;16.30;99.90;;;;;;5001601;28;20038;-91
2023/06/30 04:57:32;;;;;;;9.15;3.45;;;16.30;99.90;;;;;;5017625;28;20108;-91
2023/06/30 05:00:02;;;;;;;10.32;3.63;;;16.30;99.90;;;;;;5009465;28;20439;-90
2023/06/30 05:02:27;;;;;;;8.38;3.40;;;16.40;99.90;;;;;;5000699;28;20034;-90
2023/06/30 05:04:53;;;;;;;8.32;3.58;;;16.40;99.90;;;;;;5000434;28;20025;-89
2023/06/30 05:07:19;;;;;;;7.63;3.33;;;16.40;99.90;;;;;;5016748;28;20025;-89
2023/06/30 05:09:46;;;;;;;13.70;4.38;;;16.40;99.90;;;;;;4999842;28;20037;-91
2023/06/30 05:12:12;;;;;;;9.85;2.92;;;16.40;99.90;;;;;;5033273;28;20025;-89
2023/06/30 05:14:38;;;;;;;6.70;2.83;;;16.50;99.90;;;;;;5000977;28;20044;-89
2023/06/30 05:17:04;;;;;;;9.15;2.97;;;16.50;99.90;;;;;;5002077;28;20033;-90
2023/06/30 05:19:30;;;;;;;10.77;3.03;;;16.50;99.90;;;;;;5001847;28;20116;-90
2023/06/30 05:21:55;;;;;;;6.47;2.72;;;16.60;99.90;;;;;;5036082;28;20020;-90
2023/06/30 05:24:21;;;;;;;11.48;2.92;;;16.60;99.90;;;;;;5000702;28;20049;-89
2023/06/30 05:26:47;;;;;;;7.25;2.60;;;16.60;99.90;;;;;;5000600;28;20057;-89
2023/06/30 05:29:12;;;;;;;5.68;2.42;;;16.60;99.90;;;;;;5001703;28;20099;-90
2023/06/30 05:31:38;;;;;;;11.20;3.10;;;16.60;99.90;;;;;;5001073;28;20111;-89
2023/06/30 05:34:04;;;;;;;10.95;2.75;;;16.70;99.90;;;;;;5001690;28;20061;-88
2023/06/30 05:36:30;;;;;;;11.60;2.85;;;16.70;99.90;;;;;;5037624;28;20026;-89
2023/06/30 05:38:56;;;;;;;8.73;2.60;;;16.70;99.90;;;;;;5001779;28;20033;-89
2023/06/30 05:41:22;;;;;;;9.57;2.40;;;16.70;99.90;;;;;;5000576;28;20029;-90
2023/06/30 05:43:48;;;;;;;6.38;3.00;;;16.70;99.90;;;;;;5000352;28;20056;-90
2023/06/30 05:46:13;;;;;;;8.63;2.53;;;16.70;99.90;;;;;;5000563;28;20098;-90
2023/06/30 05:48:39;;;;;;;8.88;2.78;;;16.80;99.90;;;;;;5016906;28;20036;-90
2023/06/30 05:51:04;;;;;;;8.40;2.15;;;16.80;99.90;;;;;;5016930;28;20503;-90
2023/06/30 05:53:30;;;;;;;11.05;3.05;;;16.80;99.90;;;;;;5000361;28;20033;-90
2023/06/30 05:55:56;;;;;;;6.10;2.28;;;16.80;99.90;;;;;;5000951;28;20029;-90
2023/06/30 05:58:23;;;;;;;7.82;2.47;;;16.90;99.90;;;;;;5000636;28;20046;-90
2023/06/30 06:00:49;;;;;;;5.90;2.60;;;16.90;99.90;;;;;;5032787;28;20014;-90
2023/06/30 06:03:15;;;;;;;9.35;2.83;;;16.90;99.90;;;;;;5017532;28;20578;-94
2023/06/30 06:05:40;;;;;;;9.52;2.92;;;17.00;99.90;;;;;;5001586;28;20025;-95
2023/06/30 06:08:06;;;;;;;10.65;2.50;;;17.00;99.90;;;;;;5001166;28;20041;-94
2023/06/30 06:10:32;;;;;;;7.65;2.30;;;17.10;99.90;;;;;;5033098;28;20037;-95
2023/06/30 06:12:57;;;;;;;8.73;2.58;;;17.10;99.90;;;;;;5032846;28;20049;-95
2023/06/30 06:15:23;;;;;;;8.50;3.05;;;17.20;99.90;;;;;;5000425;28;20026;-95
2023/06/30 06:17:49;;;;;;;6.10;2.67;;;17.20;99.90;;;;;;5000661;28;20115;-91
2023/06/30 06:20:14;;;;;;;6.55;2.30;;;17.20;99.90;;;;;;5002893;28;20026;-91
2023/06/30 06:22:40;;;;;;;6.05;2.30;;;17.20;99.90;;;;;;5022916;28;20029;-90
2023/06/30 06:25:07;;;;;;;7.93;2.80;;;17.30;99.90;;;;;;5021020;28;20163;-90
2023/06/30 06:27:35;;;;;;;7.32;3.03;;;17.40;99.90;;;;;;5003932;28;20034;-90
2023/06/30 06:30:02;;;;;;;8.73;2.88;;;17.40;99.90;;;;;;5003770;28;20063;-90
2023/06/30 06:32:28;;;;;;;6.53;2.22;;;17.40;99.90;;;;;;5020408;28;20057;-90
2023/06/30 06:34:54;;;;;;;6.50;2.10;;;17.50;99.90;;;;;;5003816;28;20030;-90
2023/06/30 06:37:19;;;;;;;5.10;2.15;;;17.60;99.90;;;;;;5004317;28;20049;-90
2023/06/30 06:39:45;;;;;;;5.95;2.28;;;17.60;99.90;;;;;;5003790;28;20018;-91
2023/06/30 06:42:11;;;;;;;8.82;2.50;;;17.70;99.90;;;;;;5003655;28;20022;-91
2023/06/30 06:44:36;;;;;;;8.95;2.80;;;17.70;99.90;;;;;;5004382;28;20017;-90
2023/06/30 06:47:40;;;;;;;8.00;2.65;;;17.70;99.90;;;;;;5003506;28;20025;-90
2023/06/30 06:50:09;;;;;;;9.20;2.78;;;17.80;99.90;;;;;;5026177;28;20108;-91
2023/06/30 06:52:42;;;;;;;6.45;2.40;;;17.80;99.90;;;;;;5018345;28;20032;-89
2023/06/30 06:55:07;;;;;;;4.57;2.08;;;17.90;99.90;;;;;;5003553;28;20499;-89
2023/06/30 06:57:33;;;;;;;10.13;2.58;;;17.90;99.90;;;;;;5013760;28;20029;-90
2023/06/30 06:59:59;;;;;;;5.53;2.15;;;18.00;99.90;;;;;;4997677;28;20025;-89
2023/06/30 07:02:25;;;;;;;5.25;1.80;;;18.00;99.90;;;;;;4997573;28;20017;-90
2023/06/30 07:04:50;;;;;;;6.88;2.53;;;18.10;99.90;;;;;;4986848;28;20376;-90
2023/06/30 07:07:16;;;;;;;6.80;2.28;;;18.10;99.90;;;;;;4987142;28;20036;-90
2023/06/30 07:09:43;;;;;;;8.68;2.85;;;18.20;99.90;;;;;;4987060;28;20492;-92
2023/06/30 07:12:09;;;;;;;10.95;2.20;;;18.20;99.90;;;;;;4986917;28;20396;-92
2023/06/30 07:14:35;;;;;;;10.32;2.15;;;18.20;99.90;;;;;;4987207;28;20034;-93
2023/06/30 07:17:01;;;;;;;7.68;2.22;;;18.30;99.90;;;;;;5003360;28;20025;-90
2023/06/30 07:19:27;;;;;;;6.45;2.05;;;18.30;99.90;;;;;;4987006;28;20032;-93
2023/06/30 07:21:53;;;;;;;3.72;1.42;;;18.40;99.90;;;;;;5003246;28;20030;-93
2023/06/30 07:24:19;;;;;;;4.68;1.40;;;18.40;99.90;;;;;;5005018;28;20466;-95
2023/06/30 07:26:44;;;;;;;5.05;1.50;;;18.50;99.90;;;;;;5007040;28;20021;-90
2023/06/30 07:29:10;;;;;;;6.43;1.92;;;18.50;99.90;;;;;;5006704;28;20036;-92
2023/06/30 07:31:35;;;;;;;4.53;1.50;;;18.60;99.90;;;;;;5005660;28;20083;-90
2023/06/30 07:34:01;;;;;;;4.60;1.90;;;18.70;99.90;;;;;;5007219;28;20033;-90
2023/06/30 07:36:27;;;;;;;3.95;1.70;;;18.70;99.90;;;;;;5022699;28;20017;-91
2023/06/30 07:38:52;;;;;;;11.70;2.38;;;18.80;99.90;;;;;;5006915;28;20082;-91
2023/06/30 07:41:18;;;;;;;6.53;2.95;;;18.80;99.90;;;;;;5006464;28;20468;-94
2023/06/30 07:43:43;;;;;;;5.00;1.83;;;18.80;99.90;;;;;;5006497;28;20484;-95
2023/06/30 07:46:09;;;;;;;8.73;2.20;;;18.90;99.90;;;;;;5022719;28;20490;-94
2023/06/30 07:48:35;;;;;;;8.02;1.77;;;18.90;99.90;;;;;;5005887;28;20018;-95
2023/06/30 07:51:00;;;;;;;5.22;2.00;;;18.90;99.90;;;;;;5006168;28;20063;-94
2023/06/30 07:53:26;;;;;;;4.32;1.70;;;19.00;99.90;;;;;;5022235;28;20039;-95
2023/06/30 07:55:52;;;;;;;4.55;1.63;;;19.10;99.90;;;;;;5006813;28;20439;-95
2023/06/30 07:58:17;;;;;;;4.07;1.80;;;19.10;99.90;;;;;;5005652;28;20116;-93
2023/06/30 08:00:43;;;;;;;5.68;1.80;;;19.20;99.90;;;;;;5022224;28;20479;-92
2023/06/30 08:03:09;;;;;;;5.68;1.95;;;19.20;99.90;;;;;;5005811;28;20033;-93
2023/06/30 08:05:34;;;;;;;3.47;1.75;;;19.30;99.90;;;;;;5005609;28;20480;-92
2023/06/30 08:08:00;;;;;;;6.18;2.25;;;19.30;99.90;;;;;;5006092;28;20088;-93
2023/06/30 08:10:26;;;;;;;6.07;1.73;;;19.30;99.90;;;;;;5021840;28;20033;-92
2023/06/30 08:12:51;;;;;;;5.53;2.33;;;19.40;99.90;;;;;;5021502;28;20053;-92
2023/06/30 08:15:17;;;;;;;4.68;1.83;;;19.40;99.90;;;;;;5004979;28;20398;-91
2023/06/30 08:17:43;;;;;;;6.25;1.92;;;19.40;99.90;;;;;;5021303;28;20424;-91
2023/06/30 08:20:09;;;;;;;7.20;1.52;;;19.50;99.90;;;;;;5037968;28;20349;-93
2023/06/30 08:22:34;;;;;;;7.75;1.40;;;19.60;99.90;;;;;;5022276;28;20025;-92
2023/06/30 08:25:00;;;;;;;6.82;1.75;;;19.60;99.90;;;;;;5005093;28;20379;-91
2023/06/30 08:27:25;;;;;;;6.82;2.10;;;19.60;99.90;;;;;;5005238;28;20536;-91
2023/06/30 08:29:51;;;;;;;6.30;2.10;;;19.70;99.90;;;;;;5005266;28;20032;-91
2023/06/30 08:32:17;;;;;;;6.70;2.30;;;19.70;99.90;;;;;;5005317;28;20029;-88
2023/06/30 08:34:42;;;;;;;5.70;2.00;;;19.80;99.90;;;;;;5004725;28;20082;-89
2023/06/30 08:37:08;;;;;;;6.65;2.00;;;19.90;99.90;;;;;;5020951;28;20036;-89
2023/06/30 08:39:34;;;;;;;6.13;1.70;;;19.90;99.90;;;;;;5020795;28;20036;-87
2023/06/30 08:42:00;;;;;;;4.15;1.52;;;19.90;99.90;;;;;;5004372;28;20041;-89
2023/06/30 08:44:26;;;;;;;5.93;2.03;;;20.00;99.90;;;;;;5022170;28;20025;-89
2023/06/30 08:46:53;;;;;;;8.15;2.30;;;20.00;99.90;;;;;;5021158;28;20104;-91
2023/06/30 08:49:22;;;;;;;3.67;1.55;;;20.10;99.90;;;;;;5038290;28;20101;-90
2023/06/30 08:51:49;;;;;;;4.28;1.33;;;20.10;99.90;;;;;;5023374;28;20029;-90
2023/06/30 08:54:15;;;;;;;2.97;1.30;;;20.10;99.90;;;;;;5022018;28;20502;-90
2023/06/30 08:56:41;;;;;;;3.88;1.40;;;20.20;99.90;;;;;;5004993;28;20043;-89
2023/06/30 08:59:07;;;;;;;4.38;1.73;;;20.20;99.90;;;;;;5004420;28;20480;-89
2023/06/30 09:01:33;;;;;;;5.18;1.70;;;20.30;99.90;;;;;;5020751;28;20116;-89
2023/06/30 09:04:00;;;;;;;4.53;1.75;;;20.30;99.90;;;;;;5037173;28;20225;-89
2023/06/30 09:06:26;;;;;;;4.80;1.80;;;20.40;99.90;;;;;;5015910;28;20021;-88
2023/06/30 09:08:59;;;;;;;5.20;1.70;;;20.40;99.90;;;;;;5016655;28;20041;-88
2023/06/30 09:11:29;;;;;;;5.03;1.70;;;20.50;99.90;;;;;;5034228;28;20033;-88
2023/06/30 09:14:01;;;;;;;4.32;1.80;;;20.50;99.90;;;;;;5054275;28;20045;-88
2023/06/30 09:16:28;;;;;;;3.90;1.45;;;20.50;99.90;;;;;;5036934;28;20035;-92
2023/06/30 09:18:57;;;;;;;3.80;1.40;;;20.60;99.90;;;;;;5004511;28;20115;-94
2023/06/30 09:21:23;;;;;;;3.53;1.52;;;20.60;99.90;;;;;;5011716;28;20138;-94
2023/06/30 09:23:50;;;;;;;8.35;2.42;;;20.60;99.90;;;;;;5017097;28;20545;-90
2023/06/30 09:26:17;;;;;;;7.00;1.70;;;20.70;99.90;;;;;;5017032;28;20025;-89
2023/06/30 09:28:45;;;;;;;6.95;1.67;;;20.80;99.90;;;;;;5000572;28;20035;-90
2023/06/30 09:31:11;;;;;;;3.20;1.55;;;20.80;99.90;;;;;;5016836;28;20025;-89
2023/06/30 09:33:42;;;;;;;3.38;1.65;;;20.80;99.70;;;;;;5017021;28;20071;-89
2023/06/30 09:36:07;;;;;;;4.78;1.80;;;20.90;98.80;;;;;;5017224;28;20029;-94
2023/06/30 09:38:35;;;;;;;5.35;1.60;;;20.90;98.90;;;;;;5000979;28;20480;-91
2023/06/30 09:41:04;;;;;;;4.05;1.50;;;21.00;99.00;;;;;;5001881;28;20033;-90
2023/06/30 09:43:31;;;;;;;4.72;1.23;;;21.00;99.00;;;;;;5018375;28;20079;-91
2023/06/30 09:46:01;;;;;;;4.22;1.73;;;21.10;99.30;;;;;;5017471;28;20026;-91
2023/06/30 09:48:32;;;;;;;6.82;1.88;;;21.10;98.60;;;;;;5024983;28;20017;-91
2023/06/30 09:50:58;;;;;;;;;;;21.10;98.10;;;;;;5021011;28;20082;-91
2023/06/30 09:53:23;;;;;;;8.63;1.98;;;21.20;98.40;;;;;;5036746;28;19995;-91
2023/06/30 09:55:52;;;;;;;6.70;2.13;;;21.20;98.40;;;;;;5003284;28;20490;-90
2023/06/30 09:58:20;;;;;;;5.45;1.50;;;21.20;98.00;;;;;;5000492;28;20025;-90
2023/06/30 10:00:47;;;;;;;4.40;1.63;;;21.20;97.20;;;;;;5000573;28;20018;-89
2023/06/30 10:03:16;;;;;;;4.28;1.45;;;21.20;97.80;;;;;;5016797;28;20030;-90
2023/06/30 10:05:43;;;;;;;4.57;1.60;;;21.20;98.10;;;;;;5000911;28;20034;-90
2023/06/30 10:08:10;;;;;;;6.30;2.25;;;21.20;97.70;;;;;;5017035;28;20033;-90
2023/06/30 10:10:36;;;;;;;6.57;1.42;;;21.20;97.50;;;;;;5016406;28;20018;-90
2023/06/30 10:13:02;;;;;;;5.22;1.85;;;21.20;97.60;;;;;;5000043;28;20057;-90
2023/06/30 10:15:29;;;;;;;5.90;1.60;;;21.30;97.50;;;;;;5000206;28;20455;-89
2023/06/30 10:17:58;;;;;;;6.45;1.95;;;21.30;97.30;;;;;;5030029;28;20017;-89
2023/06/30 10:20:24;;;;;;;3.00;1.70;;;21.30;97.20;;;;;;5035387;28;20049;-89
2023/06/30 10:22:51;;;;;;;5.32;1.70;;;21.40;97.30;;;;;;5036045;28;20075;-89
2023/06/30 10:25:20;;;;;;;4.70;1.98;;;21.40;97.50;;;;;;5017569;28;20074;-89
2023/06/30 10:27:47;;;;;;;9.57;1.70;;;21.50;97.60;;;;;;5054044;28;20021;-89
2023/06/30 10:30:14;;;;;;;7.90;1.92;;;21.60;97.50;;;;;;5036607;28;20024;-89
2023/06/30 10:32:40;;;;;;;3.53;1.52;;;21.60;97.40;;;;;;5015879;28;20029;-89
2023/06/30 10:35:08;;;;;;;3.55;1.58;;;21.60;97.40;;;;;;5031603;28;20098;-89
2023/06/30 10:37:34;;;;;;;5.20;1.88;;;21.60;97.10;;;;;;5032061;28;20028;-88
2023/06/30 10:40:00;;;;;;;5.07;2.03;;;21.70;96.80;;;;;;5004775;28;20419;-88
2023/06/30 10:42:26;;;;;;;8.00;2.30;;;21.70;96.50;;;;;;5020043;28;20029;-89
2023/06/30 10:44:59;;;;;;;9.63;2.72;;;21.70;96.70;;;;;;5036689;28;20031;-89
2023/06/30 10:47:27;;;;;;;6.35;1.98;;;21.70;95.90;;;;;;5016117;28;20025;-89
2023/06/30 10:49:54;;;;;;;6.13;2.10;;;21.70;95.90;;;;;;4999802;28;20034;-90
2023/06/30 10:52:28;;;;;;;8.82;2.00;;;21.70;96.10;;;;;;5017398;28;20530;-90
2023/06/30 10:54:54;;;;;;;5.93;1.70;;;21.80;96.20;;;;;;5019739;28;20029;-88
2023/06/30 10:57:25;;;;;;;5.00;1.80;;;21.70;95.50;;;;;;5018633;28;20028;-88
2023/06/30 11:00:10;;;;;;;4.63;1.80;;;21.70;95.10;;;;;;5035123;28;20021;-89
2023/06/30 11:02:37;;;;;;;5.45;1.92;;;21.70;95.30;;;;;;5035335;28;20021;-88
2023/06/30 11:05:25;;;;;;;3.08;1.60;;;21.80;95.30;;;;;;5019139;28;20028;-90
2023/06/30 11:08:08;;;;;;;5.47;1.92;;;21.80;94.80;;;;;;5030977;28;20026;-88
2023/06/30 11:10:35;;;;;;;5.03;1.55;;;21.80;95.10;;;;;;5003190;28;20063;-88
2023/06/30 11:13:03;;;;;;;5.65;1.60;;;21.90;95.40;;;;;;5029334;28;20041;-89
2023/06/30 11:15:35;;;;;;;5.18;1.65;;;21.90;95.40;;;;;;5039489;28;20017;-89
2023/06/30 11:18:02;;;;;;;8.05;1.98;;;22.00;95.50;;;;;;5039073;28;20021;-88
2023/06/30 11:20:32;;;;;;;4.38;2.10;;;22.10;95.60;;;;;;5006031;28;20029;-88
2023/06/30 11:23:05;;;;;;;7.53;2.33;;;22.10;95.20;;;;;;5030825;28;20057;-88
2023/06/30 11:25:33;;;;;;;5.82;1.90;;;22.20;95.00;;;;;;5018487;28;20041;-89
2023/06/30 11:28:01;;;;;;;6.05;2.08;;;22.20;95.00;;;;;;5021595;28;20032;-89
2023/06/30 11:30:31;;;;;;;5.95;1.95;;;22.30;94.70;;;;;;5038899;28;20025;-88
2023/06/30 11:32:58;;;;;;;4.93;2.30;;;22.30;94.90;;;;;;5038366;28;20071;-89
2023/06/30 11:35:29;;;;;;;4.53;2.08;;;22.30;95.20;;;;;;5040062;28;20021;-95
2023/06/30 11:37:55;;;;;;;5.60;2.45;;;22.40;95.10;;;;;;5008638;28;20036;-94
2023/06/30 11:40:24;;;;;;;7.18;2.05;;;22.50;95.00;;;;;;5041814;28;20037;-95
2023/06/30 11:42:52;;;;;;;5.38;2.28;;;22.50;94.70;;;;;;5024000;28;20049;-95
2023/06/30 11:45:26;;;;;;;6.78;2.53;;;22.50;94.00;;;;;;5024253;28;20029;-95
2023/06/30 11:47:54;;;;;;;6.63;2.28;;;22.50;94.10;;;;;;5026706;28;20032;-95
2023/06/30 11:50:20;;;;;;;8.10;2.40;;;22.50;94.60;;;;;;5015913;28;20009;-96
2023/06/30 11:52:47;;;;;;;7.15;2.33;;;22.60;94.40;;;;;;5043918;28;20018;-88
2023/06/30 11:55:14;;;;;;;4.32;1.95;;;22.60;94.10;;;;;;5016499;28;20031;-89
2023/06/30 11:57:41;;;;;;;3.72;2.20;;;22.60;93.90;;;;;;4992898;28;20115;-89
2023/06/30 12:00:17;;;;;;;4.43;2.20;;;22.60;93.70;;;;;;5021408;28;20118;-89
2023/06/30 12:02:47;;;;;;;7.38;2.28;;;22.70;93.90;;;;;;5016091;28;20435;-90
2023/06/30 12:05:21;;;;;;;7.40;2.55;;;22.70;94.10;;;;;;5018559;28;20025;-90
2023/06/30 12:07:49;;;;;;;10.00;2.40;;;22.80;93.80;;;;;;5018604;28;20542;-90
2023/06/30 12:10:14;;;;;;;5.95;2.13;;;22.80;93.00;;;;;;5019535;28;20029;-91
2023/06/30 12:12:41;;;;;;;4.35;1.80;;;22.80;92.80;;;;;;5018481;28;20473;-90
2023/06/30 12:15:12;;;;;;;4.88;1.80;;;22.90;92.80;;;;;;5018576;28;20041;-91
2023/06/30 12:17:45;;;;;;;6.00;2.25;;;23.00;92.70;;;;;;5017821;28;20096;-89
2023/06/30 12:20:11;;;;;;;5.22;2.33;;;23.00;92.50;;;;;;5018554;28;20029;-90
2023/06/30 12:22:42;;;;;;;8.95;2.53;;;23.10;92.40;;;;;;5019699;28;20021;-90
2023/06/30 12:25:11;;;;;;;4.68;2.20;;;23.10;92.40;;;;;;5018919;28;20025;-92
2023/06/30 12:27:41;;;;;;;7.45;2.25;;;23.10;92.50;;;;;;5017969;28;20021;-93
2023/06/30 12:30:17;;;;;;;3.78;1.83;;;23.20;92.90;;;;;;5017777;28;20516;-92
2023/06/30 12:32:44;;;;;;;3.88;2.05;;;23.20;93.10;;;;;;5018675;28;20026;-93
2023/06/30 12:35:12;;;;;;;5.93;1.90;;;23.30;92.60;;;;;;5018345;28;20053;-92
2023/06/30 12:37:38;;;;;;;4.75;2.08;;;23.30;92.30;;;;;;5018402;28;20033;-92
2023/06/30 12:40:08;;;;;;;4.35;1.70;;;23.30;92.30;;;;;;5019027;28;20032;-92
2023/06/30 12:42:34;;;;;;;7.03;3.25;;;23.30;92.40;;;;;;5019724;28;20495;-90
2023/06/30 12:45:00;;;;;;;6.60;3.30;;;23.40;92.10;;;;;;5018176;28;20464;-91